Time;durP1;ratioP1;P1;durP2;ratioP2;P2;SDS_P1;SDS_P2;PMS_P1;PMS_P2;Temp;Humidity;BMP_temperature;BMP_pressure;BME280_temperature;BME280_humidity;BME280_pressure;Samples;Min_cycle;Max_cycle;Signal;HPM_P1;HPM_P2
2022/10/23 00:02:01;;;;;;;15.93;7.37;;;;;;;-145.18;100.00;46654.53;5072097;28;20052;-71
2022/10/23 00:04:26;;;;;;;16.30;7.80;;;;;;;-145.18;100.00;46660.41;5072702;28;20045;-71
2022/10/23 00:06:51;;;;;;;11.27;7.00;;;;;;;-145.18;100.00;46660.41;5072331;28;20075;-72
2022/10/23 00:09:20;;;;;;;13.20;6.97;;;;;;;-145.18;100.00;46654.53;5072871;28;20409;-72
2022/10/23 00:11:47;;;;;;;15.60;6.73;;;;;;;-145.18;100.00;46656.50;5071925;28;20036;-72
2022/10/23 00:14:13;;;;;;;18.30;7.30;;;;;;;-145.18;100.00;46658.44;5072736;28;20512;-72
2022/10/23 00:16:39;;;;;;;17.53;6.97;;;;;;;-145.18;100.00;46660.41;5072426;28;20029;-72
2022/10/23 00:19:04;;;;;;;16.50;7.67;;;;;;;-145.18;100.00;46658.44;5072485;28;20047;-72
2022/10/23 00:21:30;;;;;;;17.27;6.67;;;;;;;-145.18;100.00;46658.44;5054101;28;20048;-72
2022/10/23 00:23:55;;;;;;;12.10;6.73;;;;;;;-145.18;100.00;46656.50;5072419;28;20557;-72
2022/10/23 00:26:21;;;;;;;11.13;6.67;;;;;;;-145.18;100.00;46662.34;5072470;28;20036;-71
2022/10/23 00:28:49;;;;;;;23.83;7.23;;;;;;;-145.18;100.00;46658.44;5072180;28;20033;-72
2022/10/23 00:31:15;;;;;;;10.10;6.40;;;;;;;-145.18;100.00;46656.50;5072017;28;20154;-71
2022/10/23 00:33:42;;;;;;;15.80;6.97;;;;;;;-145.18;100.00;46664.31;5072248;28;20063;-71
2022/10/23 00:36:09;;;;;;;11.50;6.10;;;;;;;-145.18;100.00;46660.41;5071828;28;20035;-72
2022/10/23 00:38:36;;;;;;;14.17;6.97;;;;;;;-145.18;100.00;46660.41;5072239;28;20055;-71
2022/10/23 00:41:03;;;;;;;14.70;6.60;;;;;;;-145.18;100.00;46662.34;5071765;28;20032;-72
2022/10/23 00:43:30;;;;;;;16.10;7.00;;;;;;;-145.18;100.00;46656.50;5071809;28;20397;-72
2022/10/23 00:45:56;;;;;;;14.53;6.70;;;;;;;-145.18;100.00;46660.41;5071814;28;20029;-72
2022/10/23 00:48:22;;;;;;;16.10;7.07;;;;;;;-145.18;100.00;46656.50;5071979;28;20079;-71
2022/10/23 00:50:48;;;;;;;18.13;6.13;;;;;;;-145.18;100.00;46658.44;5071536;28;20029;-72
2022/10/23 00:53:16;;;;;;;11.70;6.23;;;;;;;-145.18;100.00;46660.41;5071854;28;20516;-71
2022/10/23 00:55:46;;;;;;;15.33;6.30;;;;;;;-145.18;100.00;46662.34;5071784;28;20029;-72
2022/10/23 00:58:13;;;;;;;15.47;6.70;;;;;;;-145.18;100.00;46654.53;5071910;28;20029;-72
2022/10/23 01:00:49;;;;;;;14.03;6.67;;;;;;;-145.18;100.00;46658.44;5054064;28;20115;-72
2022/10/23 01:03:17;;;;;;;15.23;6.77;;;;;;;-145.18;100.00;46662.34;5071408;28;20029;-72
2022/10/23 01:06:08;;;;;;;13.47;6.80;;;;;;;-145.18;100.00;46658.44;5071257;28;20020;-71
2022/10/23 01:08:45;;;;;;;18.50;7.83;;;;;;;-145.18;100.00;46666.25;5071754;28;20055;-72
2022/10/23 01:11:17;;;;;;;19.27;7.30;;;;;;;-145.18;100.00;46662.34;5071335;28;20040;-72
2022/10/23 01:14:25;;;;;;;14.27;7.13;;;;;;;-145.18;100.00;46664.31;5071388;28;20032;-72
2022/10/23 01:17:15;;;;;;;14.73;7.13;;;;;;;-145.18;100.00;46664.31;5071043;28;20036;-72
2022/10/23 01:19:43;;;;;;;19.60;7.50;;;;;;;-145.18;100.00;46662.34;5071192;28;20067;-71
2022/10/23 01:22:31;;;;;;;17.53;8.33;;;;;;;-145.18;100.00;46656.50;5071119;28;20032;-72
2022/10/23 01:25:03;;;;;;;16.77;7.53;;;;;;;-145.18;100.00;46658.44;5071129;28;20044;-71
2022/10/23 01:27:41;;;;;;;17.43;8.33;;;;;;;-145.18;100.00;46656.50;5071028;28;20456;-71
2022/10/23 01:30:10;;;;;;;19.73;8.23;;;;;;;-145.18;100.00;46658.44;5070985;28;20491;-71
2022/10/23 01:32:55;;;;;;;13.97;7.43;;;;;;;-145.18;100.00;46658.44;5070832;28;20032;-71
2022/10/23 01:35:26;;;;;;;22.13;8.30;;;;;;;-145.18;100.00;46660.41;5071063;28;20033;-71
2022/10/23 01:38:15;;;;;;;21.73;9.37;;;;;;;-145.18;100.00;46654.53;5070500;28;20043;-71
2022/10/23 01:40:49;;;;;;;15.90;7.20;;;;;;;-145.18;100.00;46652.59;5071003;28;20064;-71
2022/10/23 01:43:20;;;;;;;17.77;8.03;;;;;;;-145.18;100.00;46650.63;5070867;28;20107;-71
2022/10/23 01:45:50;;;;;;;22.43;7.17;;;;;;;-145.18;100.00;46652.59;5070668;28;20089;-71
2022/10/23 01:48:21;;;;;;;15.87;7.40;;;;;;;-145.18;100.00;46656.50;5052229;28;20394;-72
2022/10/23 01:50:47;;;;;;;18.53;8.03;;;;;;;-145.18;100.00;46652.59;5070781;28;20032;-72
2022/10/23 01:53:13;;;;;;;17.67;7.67;;;;;;;-145.18;100.00;46654.53;5070677;28;20056;-72
2022/10/23 01:55:41;;;;;;;15.10;7.53;;;;;;;-145.18;100.00;46656.50;5052938;28;20505;-71
2022/10/23 01:58:08;;;;;;;15.57;8.03;;;;;;;-145.18;100.00;46654.53;5070014;28;20123;-71
2022/10/23 02:00:35;;;;;;;16.23;7.33;;;;;;;-145.18;100.00;46652.59;5070750;28;20127;-71
2022/10/23 02:03:03;;;;;;;13.63;7.87;;;;;;;-145.18;100.00;46652.59;5070128;28;20078;-72
2022/10/23 02:05:29;;;;;;;24.33;7.30;;;;;;;-145.18;100.00;46660.41;5070686;28;20049;-72
2022/10/23 02:07:56;;;;;;;17.80;7.93;;;;;;;-145.18;100.00;46654.53;5069919;28;20028;-72
2022/10/23 02:10:31;;;;;;;18.23;8.13;;;;;;;-145.18;100.00;46658.44;5070591;28;20170;-72
2022/10/23 02:13:04;;;;;;;12.70;7.20;;;;;;;-145.18;100.00;46656.50;5070126;28;20033;-72
2022/10/23 02:15:35;;;;;;;19.77;7.83;;;;;;;-145.18;100.00;46660.41;5070581;28;20407;-72
2022/10/23 02:18:17;;;;;;;17.63;8.30;;;;;;;-145.18;100.00;46656.50;5070198;28;20075;-72
2022/10/23 02:20:51;;;;;;;16.73;7.63;;;;;;;-145.18;100.00;46652.59;5069838;28;20501;-72
2022/10/23 02:23:28;;;;;;;12.93;6.60;;;;;;;-145.18;100.00;46654.53;5070252;28;20059;-72
2022/10/23 02:26:19;;;;;;;17.17;8.47;;;;;;;-145.18;100.00;46658.44;5069990;28;20120;-71
2022/10/23 02:28:51;;;;;;;14.37;7.47;;;;;;;-145.18;100.00;46656.50;5070008;28;20035;-72
2022/10/23 02:31:20;;;;;;;15.00;6.47;;;;;;;-145.18;100.00;46656.50;5070202;28;20032;-72
2022/10/23 02:33:46;;;;;;;13.13;6.67;;;;;;;-145.18;100.00;46650.63;5070005;28;20162;-72
2022/10/23 02:36:12;;;;;;;16.93;6.73;;;;;;;-145.18;100.00;46660.41;5070211;28;20056;-72
2022/10/23 02:38:41;;;;;;;10.83;6.83;;;;;;;-145.18;100.00;46654.53;5070007;28;20112;-72
2022/10/23 02:41:22;;;;;;;13.17;6.23;;;;;;;-145.18;100.00;46654.53;5070056;28;20033;-72
2022/10/23 02:44:02;;;;;;;13.07;6.50;;;;;;;-145.18;100.00;46660.41;5070148;28;20036;-72
2022/10/23 02:47:03;;;;;;;15.23;6.57;;;;;;;-145.18;100.00;46658.44;5070058;28;20037;-72
2022/10/23 02:49:43;;;;;;;12.50;6.77;;;;;;;-145.18;100.00;46658.44;5070256;28;20094;-72
2022/10/23 02:52:27;;;;;;;12.07;6.87;;;;;;;-145.18;100.00;46654.53;5069718;28;20392;-72
2022/10/23 02:54:52;;;;;;;13.43;6.40;;;;;;;-145.18;100.00;46658.44;5069832;28;20036;-72
2022/10/23 02:58:07;;;;;;;13.83;7.00;;;;;;;-145.18;100.00;46656.50;5069934;28;20385;-71
2022/10/23 03:03:18;;;;;;;11.07;6.03;;;;;;;-145.18;100.00;46646.72;5181877;23;20058;-72
2022/10/23 03:05:43;;;;;;;12.57;6.57;;;;;;;-145.18;100.00;46654.53;5003116;28;20054;-72
2022/10/23 03:08:10;;;;;;;16.33;7.17;;;;;;;-145.18;100.00;46652.59;5014043;28;20168;-72
2022/10/23 03:10:36;;;;;;;13.50;7.07;;;;;;;-145.18;100.00;46658.44;4996843;28;20026;-72
2022/10/23 03:13:02;;;;;;;16.43;6.93;;;;;;;-145.18;100.00;46650.63;5013578;28;20034;-72
2022/10/23 03:15:27;;;;;;;18.00;6.87;;;;;;;-145.18;100.00;46652.59;5014221;28;20034;-72
2022/10/23 03:17:52;;;;;;;22.50;7.27;;;;;;;-145.18;100.00;46656.50;5013769;28;20042;-72
2022/10/23 03:20:18;;;;;;;12.73;5.83;;;;;;;-145.18;100.00;46650.63;5014243;28;20391;-72
2022/10/23 03:22:43;;;;;;;12.00;6.40;;;;;;;-145.18;100.00;46658.44;5013802;28;20052;-72
2022/10/23 03:25:09;;;;;;;13.03;5.53;;;;;;;-145.18;100.00;46652.59;5013720;28;20040;-72
2022/10/23 03:27:35;;;;;;;14.13;6.00;;;;;;;-145.18;100.00;46658.44;4990566;28;20085;-72
2022/10/23 03:30:01;;;;;;;15.97;8.00;;;;;;;-145.18;100.00;46660.41;5000874;28;20129;-72
2022/10/23 03:32:26;;;;;;;21.47;7.57;;;;;;;-145.18;100.00;46652.59;5001057;28;20553;-72
2022/10/23 03:34:52;;;;;;;17.67;7.47;;;;;;;-145.18;100.00;46654.53;5003920;28;20038;-72
2022/10/23 03:37:17;;;;;;;15.27;7.00;;;;;;;-145.18;100.00;46656.50;4990157;28;20529;-72
2022/10/23 03:39:43;;;;;;;15.97;6.53;;;;;;;-145.18;100.00;46652.59;4999629;28;20069;-72
2022/10/23 03:42:08;;;;;;;13.77;6.77;;;;;;;-145.18;100.00;46652.59;4993196;28;20053;-72
2022/10/23 03:44:34;;;;;;;12.67;6.13;;;;;;;-145.18;100.00;46654.53;4993625;28;20449;-72
2022/10/23 03:46:59;;;;;;;16.90;6.60;;;;;;;-145.18;100.00;46660.41;4993135;28;20136;-72
2022/10/23 03:49:25;;;;;;;16.70;6.67;;;;;;;-145.18;100.00;46656.50;4993534;28;20026;-72
2022/10/23 03:51:51;;;;;;;16.53;6.87;;;;;;;-145.18;100.00;46658.44;4991468;28;20380;-72
2022/10/23 03:54:25;;;;;;;16.20;6.83;;;;;;;-145.18;100.00;46652.59;4993809;28;20034;-72
2022/10/23 03:56:52;;;;;;;15.73;7.13;;;;;;;-145.18;100.00;46658.44;4993239;28;20026;-72
2022/10/23 03:59:18;;;;;;;17.00;7.20;;;;;;;-145.18;100.00;46660.41;4993401;28;20045;-72
2022/10/23 04:01:44;;;;;;;12.87;7.47;;;;;;;-145.18;100.00;46652.59;5001169;28;20490;-72
2022/10/23 04:04:09;;;;;;;24.00;8.20;;;;;;;-145.18;100.00;46658.44;5012476;28;20077;-72
2022/10/23 04:06:34;;;;;;;17.77;8.37;;;;;;;-145.18;100.00;46652.59;5044580;28;20065;-72
2022/10/23 04:09:00;;;;;;;18.57;8.43;;;;;;;-145.18;100.00;46654.53;5010998;28;20022;-72
2022/10/23 04:11:25;;;;;;;27.37;8.60;;;;;;;-145.18;100.00;46652.59;5010628;28;20037;-71
2022/10/23 04:13:51;;;;;;;16.17;8.67;;;;;;;-145.18;100.00;46652.59;5012191;28;20053;-72
2022/10/23 04:16:16;;;;;;;19.30;9.13;;;;;;;-145.18;100.00;46648.69;5011505;28;20026;-72
2022/10/23 04:18:42;;;;;;;17.77;8.00;;;;;;;-145.18;100.00;46650.63;5011033;28;20544;-72
2022/10/23 04:21:07;;;;;;;15.87;8.17;;;;;;;-145.18;100.00;46652.59;5012415;28;20037;-72
2022/10/23 04:23:33;;;;;;;14.80;8.07;;;;;;;-145.18;100.00;46656.50;5010851;28;20034;-71
2022/10/23 04:25:58;;;;;;;17.73;8.47;;;;;;;-145.18;100.00;46652.59;5012120;28;20097;-71
2022/10/23 04:28:24;;;;;;;20.20;9.00;;;;;;;-145.18;100.00;46648.69;5012169;28;20034;-72
2022/10/23 04:30:50;;;;;;;21.43;9.13;;;;;;;-145.18;100.00;46652.59;5012304;28;20068;-72
2022/10/23 04:33:15;;;;;;;20.03;8.97;;;;;;;-145.18;100.00;46654.53;5012144;28;20368;-72
2022/10/23 04:35:40;;;;;;;14.07;8.83;;;;;;;-145.18;100.00;46652.59;5012081;28;20033;-71
2022/10/23 04:38:06;;;;;;;19.77;9.00;;;;;;;-145.18;100.00;46650.63;4995978;28;20476;-72
2022/10/23 04:40:31;;;;;;;16.37;8.43;;;;;;;-145.18;100.00;46656.50;5011060;28;20102;-72
2022/10/23 04:42:56;;;;;;;14.60;8.87;;;;;;;-145.18;100.00;46652.59;5010224;28;20037;-72
2022/10/23 04:45:22;;;;;;;17.10;7.73;;;;;;;-145.18;100.00;46656.50;5012207;28;20045;-71
2022/10/23 04:47:47;;;;;;;15.73;8.97;;;;;;;-145.18;100.00;46654.53;4994439;28;20046;-71
2022/10/23 04:50:13;;;;;;;23.03;8.97;;;;;;;-145.18;100.00;46646.72;5010682;28;20487;-71
2022/10/23 04:52:39;;;;;;;17.97;8.87;;;;;;;-145.18;100.00;46650.63;5012266;28;20037;-71
2022/10/23 04:55:06;;;;;;;16.40;8.00;;;;;;;-145.18;100.00;46644.78;5012553;28;20037;-71
2022/10/23 04:57:31;;;;;;;18.77;8.90;;;;;;;-145.18;100.00;46648.69;5011905;28;20022;-71
2022/10/23 04:59:56;;;;;;;18.10;8.03;;;;;;;-145.18;100.00;46656.50;5012383;28;20040;-72
2022/10/23 05:02:23;;;;;;;18.47;8.80;;;;;;;-145.18;100.00;46652.59;5011720;28;20140;-72
2022/10/23 05:04:48;;;;;;;23.17;9.43;;;;;;;-145.18;100.00;46652.59;5012236;28;20064;-72
2022/10/23 05:07:14;;;;;;;12.93;9.00;;;;;;;-145.18;100.00;46652.59;5011942;28;20385;-72
2022/10/23 05:09:39;;;;;;;13.87;7.60;;;;;;;-145.18;100.00;46652.59;5012214;28;20045;-72
2022/10/23 05:12:05;;;;;;;21.80;8.73;;;;;;;-145.18;100.00;46650.63;5014095;28;20027;-72
2022/10/23 05:14:30;;;;;;;21.60;8.97;;;;;;;-145.18;100.00;46654.53;5020213;28;20022;-71
2022/10/23 05:17:03;;;;;;;17.57;9.40;;;;;;;-145.18;100.00;46652.59;5018534;28;20050;-72
2022/10/23 05:19:35;;;;;;;22.47;10.43;;;;;;;-145.18;100.00;46648.69;5020918;28;20450;-71
2022/10/23 05:22:01;;;;;;;20.83;9.37;;;;;;;-145.18;100.00;46656.50;5010882;28;20041;-72
2022/10/23 05:24:26;;;;;;;19.90;10.00;;;;;;;-145.18;100.00;46652.59;5009825;28;20045;-71
2022/10/23 05:26:52;;;;;;;19.83;9.73;;;;;;;-145.18;100.00;46650.63;5011532;28;20045;-72
2022/10/23 05:29:20;;;;;;;18.23;8.53;;;;;;;-145.18;100.00;46650.63;5011375;28;20030;-72
2022/10/23 05:31:49;;;;;;;29.53;10.13;;;;;;;-145.18;100.00;46650.63;5010267;28;20390;-71
2022/10/23 05:34:18;;;;;;;13.27;9.27;;;;;;;-145.18;100.00;46652.59;5010213;28;20025;-72
2022/10/23 05:36:44;;;;;;;24.07;9.33;;;;;;;-145.18;100.00;46648.69;5011430;28;20046;-72
2022/10/23 05:39:10;;;;;;;22.50;9.70;;;;;;;-145.18;100.00;46652.59;5011494;28;20165;-72
2022/10/23 05:41:35;;;;;;;19.93;9.67;;;;;;;-145.18;100.00;46648.69;5011696;28;20038;-72
2022/10/23 05:44:00;;;;;;;16.47;9.33;;;;;;;-145.18;100.00;46652.59;5011247;28;20105;-72
2022/10/23 05:46:26;;;;;;;20.73;9.03;;;;;;;-145.18;100.00;46652.59;5010597;28;20064;-72
2022/10/23 05:48:52;;;;;;;18.60;9.90;;;;;;;-145.18;100.00;46652.59;5011243;28;20072;-72
2022/10/23 05:51:21;;;;;;;16.23;8.93;;;;;;;-145.18;100.00;46650.63;5012048;28;20506;-72
2022/10/23 05:53:49;;;;;;;21.20;9.27;;;;;;;-145.18;100.00;46650.63;5010933;28;20053;-72
2022/10/23 05:56:15;;;;;;;19.17;9.20;;;;;;;-145.18;100.00;46656.50;5011289;28;20040;-72
2022/10/23 05:58:40;;;;;;;17.17;8.57;;;;;;;-145.18;100.00;46652.59;5011389;28;20034;-71
2022/10/23 06:01:08;;;;;;;16.13;8.83;;;;;;;-145.18;100.00;46654.53;5011058;28;20033;-72
2022/10/23 06:03:34;;;;;;;18.10;8.73;;;;;;;-145.18;100.00;46650.63;4993466;28;20057;-72
2022/10/23 06:06:00;;;;;;;14.87;8.77;;;;;;;-145.18;100.00;46648.69;5011065;28;20042;-72
2022/10/23 06:08:25;;;;;;;12.83;9.23;;;;;;;-145.18;100.00;46650.63;5010963;28;20026;-72
2022/10/23 06:10:50;;;;;;;24.90;9.50;;;;;;;-145.18;100.00;46648.69;5011215;28;20062;-72
2022/10/23 06:13:16;;;;;;;14.23;8.80;;;;;;;-145.18;100.00;46652.59;5010973;28;20076;-72
2022/10/23 06:15:41;;;;;;;14.27;8.57;;;;;;;-145.18;100.00;46652.59;5009948;28;20108;-72
2022/10/23 06:18:07;;;;;;;19.07;9.03;;;;;;;-145.18;100.00;46652.59;5008486;28;20045;-72
2022/10/23 06:20:37;;;;;;;20.70;9.63;;;;;;;-145.18;100.00;46648.69;5010402;28;20061;-72
2022/10/23 06:23:03;;;;;;;17.03;9.00;;;;;;;-145.18;100.00;46654.53;5010452;28;20084;-72
2022/10/23 06:25:29;;;;;;;20.10;8.27;;;;;;;-145.18;100.00;46650.63;5009729;28;20037;-72
2022/10/23 06:27:54;;;;;;;14.17;9.50;;;;;;;-145.18;100.00;46658.44;5008019;28;20145;-72
2022/10/23 06:30:19;;;;;;;18.90;9.33;;;;;;;-145.18;100.00;46648.69;5012521;28;20121;-72
2022/10/23 06:32:45;;;;;;;18.80;8.37;;;;;;;-145.18;100.00;46648.69;5009209;28;20062;-72
2022/10/23 06:35:10;;;;;;;17.90;8.10;;;;;;;-145.18;100.00;46650.63;5007401;28;20040;-72
2022/10/23 06:37:35;;;;;;;18.17;8.50;;;;;;;-145.18;100.00;46654.53;5009014;28;20045;-71
2022/10/23 06:40:01;;;;;;;19.97;8.67;;;;;;;-145.18;100.00;46652.59;5009999;28;20034;-72
2022/10/23 06:42:26;;;;;;;15.13;8.50;;;;;;;-145.18;100.00;46650.63;5010065;28;20044;-72
2022/10/23 06:44:51;;;;;;;16.03;8.70;;;;;;;-145.18;100.00;46648.69;5010309;28;20066;-72
2022/10/23 06:47:17;;;;;;;15.03;8.27;;;;;;;-145.18;100.00;46652.59;5010598;28;20398;-72
2022/10/23 06:49:42;;;;;;;21.23;9.43;;;;;;;-145.18;100.00;46650.63;5009900;28;20121;-72
2022/10/23 06:52:07;;;;;;;17.00;9.30;;;;;;;-145.18;100.00;46652.59;5009262;28;20497;-72
2022/10/23 06:54:33;;;;;;;14.90;8.40;;;;;;;-145.18;100.00;46654.53;5009369;28;20133;-71
2022/10/23 06:56:58;;;;;;;21.50;8.53;;;;;;;-145.18;100.00;46650.63;5009671;28;20073;-72
2022/10/23 06:59:24;;;;;;;18.63;9.90;;;;;;;-145.18;100.00;46654.53;5010074;28;20042;-72
2022/10/23 07:01:49;;;;;;;16.07;8.30;;;;;;;-145.18;100.00;46656.50;5010102;28;20516;-72
2022/10/23 07:04:15;;;;;;;14.77;8.20;;;;;;;-145.18;100.00;46654.53;5009602;28;20058;-71
2022/10/23 07:06:41;;;;;;;16.60;7.83;;;;;;;-145.18;100.00;46648.69;5008227;28;20030;-72
2022/10/23 07:09:07;;;;;;;18.37;8.80;;;;;;;-145.18;100.00;46652.59;5005364;28;20060;-71
2022/10/23 07:11:32;;;;;;;18.63;8.03;;;;;;;-145.18;100.00;46654.53;5005849;28;20026;-72
2022/10/23 07:13:58;;;;;;;12.30;8.30;;;;;;;-145.18;100.00;46654.53;5005980;28;20096;-72
2022/10/23 07:16:23;;;;;;;15.50;8.47;;;;;;;-145.18;100.00;46648.69;5005850;28;20058;-72
2022/10/23 07:19:00;;;;;;;14.53;8.07;;;;;;;-145.18;100.00;46652.59;5006387;28;20033;-72
2022/10/23 07:21:28;;;;;;;13.70;7.70;;;;;;;-145.18;100.00;46652.59;5005641;28;20029;-72
2022/10/23 07:23:53;;;;;;;14.80;7.73;;;;;;;-145.18;100.00;46650.63;5005784;28;20044;-71
2022/10/23 07:26:19;;;;;;;20.37;8.83;;;;;;;-145.18;100.00;46650.63;5006897;28;20034;-72
2022/10/23 07:28:46;;;;;;;18.97;8.63;;;;;;;-145.18;100.00;46654.53;5006437;28;20034;-72
2022/10/23 07:31:13;;;;;;;12.17;7.63;;;;;;;-145.18;100.00;46654.53;5005759;28;20030;-72
2022/10/23 07:33:38;;;;;;;17.37;7.67;;;;;;;-145.18;100.00;46652.59;5006348;28;20034;-71
2022/10/23 07:36:06;;;;;;;13.90;7.67;;;;;;;-145.18;100.00;46650.63;5006301;28;20470;-72
2022/10/23 07:38:31;;;;;;;15.40;8.00;;;;;;;-145.18;100.00;46648.69;5006177;28;20038;-72
2022/10/23 07:40:58;;;;;;;15.23;7.93;;;;;;;-145.18;100.00;46650.63;5006285;28;20163;-72
2022/10/23 07:43:24;;;;;;;17.80;7.37;;;;;;;-145.18;100.00;46652.59;5006407;28;20092;-72
2022/10/23 07:45:51;;;;;;;12.93;7.17;;;;;;;-145.18;100.00;46652.59;5006203;28;20038;-72
2022/10/23 07:48:16;;;;;;;17.03;8.87;;;;;;;-145.18;100.00;46656.50;5008957;28;20025;-72
2022/10/23 07:50:42;;;;;;;13.33;7.47;;;;;;;-145.18;100.00;46654.53;5009644;28;20430;-72
2022/10/23 07:53:15;;;;;;;12.20;7.13;;;;;;;-145.18;100.00;46656.50;5009713;28;20497;-71
2022/10/23 07:55:40;;;;;;;16.03;6.80;;;;;;;-145.18;100.00;46656.50;5009339;28;20553;-72
2022/10/23 07:58:06;;;;;;;12.43;7.03;;;;;;;-145.18;100.00;46654.53;5009448;28;20034;-72
2022/10/23 08:00:31;;;;;;;19.53;6.93;;;;;;;-145.18;100.00;46658.44;5009472;28;20541;-71
2022/10/23 08:02:56;;;;;;;13.50;7.63;;;;;;;-145.18;100.00;46660.41;5008791;28;20404;-72
2022/10/23 08:05:22;;;;;;;15.50;7.17;;;;;;;-145.18;100.00;46650.63;5009830;28;20080;-72
2022/10/23 08:07:47;;;;;;;13.97;6.60;;;;;;;-145.18;100.00;46658.44;5008848;28;20038;-72
2022/10/23 08:10:12;;;;;;;14.67;7.03;;;;;;;-145.18;100.00;46656.50;5008895;28;20033;-72
2022/10/23 08:12:38;;;;;;;15.57;7.63;;;;;;;-145.18;100.00;46666.25;5009340;28;20038;-72
2022/10/23 08:15:03;;;;;;;17.67;7.70;;;;;;;-145.18;100.00;46656.50;5009110;28;20088;-72
2022/10/23 08:17:29;;;;;;;11.07;6.40;;;;;;;-145.18;100.00;46660.41;5009096;28;20129;-72
2022/10/23 08:19:54;;;;;;;11.60;7.20;;;;;;;-145.18;100.00;46658.44;5007920;28;20105;-72
2022/10/23 08:22:19;;;;;;;14.80;7.00;;;;;;;-145.18;100.00;46656.50;5009391;28;20122;-71
2022/10/23 08:24:45;;;;;;;14.67;7.17;;;;;;;-145.18;100.00;46656.50;5008796;28;20040;-72
2022/10/23 08:27:10;;;;;;;14.63;6.50;;;;;;;-145.18;100.00;46660.41;5007286;28;20133;-72
2022/10/23 08:29:35;;;;;;;13.37;7.07;;;;;;;-145.18;100.00;46654.53;5008319;28;20033;-71
2022/10/23 08:32:01;;;;;;;12.57;7.33;;;;;;;-145.18;100.00;46658.44;5009236;28;20456;-72
2022/10/23 08:34:26;;;;;;;12.87;7.03;;;;;;;-145.18;100.00;46662.34;5008515;28;20136;-72
2022/10/23 08:36:52;;;;;;;17.77;6.67;;;;;;;-145.18;100.00;46656.50;5008712;28;20092;-72
2022/10/23 08:39:17;;;;;;;13.27;6.70;;;;;;;-145.18;100.00;46656.50;5008426;28;20109;-72
2022/10/23 08:41:48;;;;;;;13.97;6.10;;;;;;;-145.18;100.00;46658.44;5006663;28;20045;-71
2022/10/23 08:44:39;;;;;;;14.70;7.43;;;;;;;-145.18;100.00;46656.50;5012061;28;20025;-72
2022/10/23 08:47:11;;;;;;;14.47;6.40;;;;;;;-145.18;100.00;46668.22;5014549;28;20033;-72
2022/10/23 08:49:48;;;;;;;12.13;6.83;;;;;;;-145.18;100.00;46662.34;5011977;28;20057;-72
2022/10/23 08:52:43;;;;;;;12.10;6.53;;;;;;;-145.18;100.00;46662.34;5017441;28;20033;-72
2022/10/23 08:55:22;;;;;;;18.27;6.80;;;;;;;-145.18;100.00;46664.31;5020602;28;20145;-72
2022/10/23 08:58:14;;;;;;;13.63;6.83;;;;;;;-145.18;100.00;46660.41;5017326;28;20040;-72
2022/10/23 09:00:45;;;;;;;15.23;6.47;;;;;;;-145.18;100.00;46662.34;5027331;28;20060;-71
2022/10/23 09:03:12;;;;;;;15.40;7.23;;;;;;;-145.18;100.00;46668.22;5010472;28;20073;-71
2022/10/23 09:05:58;;;;;;;12.70;6.93;;;;;;;-145.18;100.00;46662.34;5011831;28;20068;-71
2022/10/23 09:08:26;;;;;;;12.30;6.20;;;;;;;-145.18;100.00;46668.22;5011738;28;20049;-72
2022/10/23 09:11:02;;;;;;;12.10;6.70;;;;;;;-145.18;100.00;46662.34;5011851;28;20034;-71
2022/10/23 09:14:02;;;;;;;11.85;7.15;;;;;;;-145.18;100.00;46662.34;5011835;28;20364;-70
2022/10/23 09:16:39;;;;;;;12.97;7.13;;;;;;;-145.18;100.00;46662.34;5011065;28;20056;-72
2022/10/23 09:19:19;;;;;;;12.53;7.00;;;;;;;-145.18;100.00;46666.25;5008016;28;20087;-72
2022/10/23 09:21:48;;;;;;;14.00;5.87;;;;;;;-145.18;100.00;46664.31;5011820;28;20076;-72
2022/10/23 09:24:17;;;;;;;16.90;6.63;;;;;;;-145.18;100.00;46664.31;5011011;28;20103;-72
2022/10/23 09:26:48;;;;;;;13.93;6.83;;;;;;;-145.18;100.00;46664.31;5011991;28;20033;-71
2022/10/23 09:29:34;;;;;;;10.47;7.00;;;;;;;-145.18;100.00;46666.25;5010620;28;20022;-72
2022/10/23 09:32:04;;;;;;;11.87;7.00;;;;;;;-145.18;100.00;46664.31;5011581;28;20026;-71
2022/10/23 09:34:33;;;;;;;16.50;6.53;;;;;;;-145.18;100.00;46668.22;5010709;28;20073;-71
2022/10/23 09:37:01;;;;;;;11.00;6.50;;;;;;;-145.18;100.00;46666.25;5011445;28;20026;-72
2022/10/23 09:39:28;;;;;;;12.23;6.90;;;;;;;-145.18;100.00;46668.22;5011114;28;20040;-72
2022/10/23 09:41:54;;;;;;;14.60;7.80;;;;;;;-145.18;100.00;46664.31;5011136;28;20030;-72
2022/10/23 09:44:22;;;;;;;18.67;9.83;;;;;;;-145.18;100.00;46666.25;5010875;28;20153;-72
2022/10/23 09:46:53;;;;;;;20.20;8.13;;;;;;;-145.18;100.00;46670.16;5011172;28;20056;-72
2022/10/23 09:49:27;;;;;;;12.63;6.83;;;;;;;-145.18;100.00;46666.25;5000364;28;20507;-71
2022/10/23 09:52:00;;;;;;;14.57;7.37;;;;;;;-145.18;100.00;46662.34;4991968;28;20041;-72
2022/10/23 09:54:28;;;;;;;21.17;6.90;;;;;;;-145.18;100.00;46658.44;5000810;28;20042;-72
2022/10/23 09:56:55;;;;;;;14.27;6.73;;;;;;;-145.18;100.00;46664.31;5010715;28;20034;-72
2022/10/23 09:59:29;;;;;;;21.27;7.67;;;;;;;-145.18;100.00;46666.25;5010697;28;20026;-71
2022/10/23 10:02:04;;;;;;;15.77;6.73;;;;;;;-145.18;100.00;46666.25;5010657;28;20029;-72
2022/10/23 10:04:32;;;;;;;16.52;7.47;;;;;;;-145.18;100.00;46660.41;5010297;28;20073;-72
2022/10/23 10:07:02;;;;;;;16.00;7.07;;;;;;;-145.18;100.00;46662.34;5010804;28;20033;-72
2022/10/23 10:09:27;;;;;;;17.63;7.97;;;;;;;-145.18;100.00;46668.22;5010048;28;20113;-72
2022/10/23 10:11:58;;;;;;;10.87;6.53;;;;;;;-145.18;100.00;46676.03;5010804;28;20022;-72
2022/10/23 10:15:03;;;;;;;16.00;7.07;;;;;;;-145.18;100.00;46670.16;5010421;28;20596;-72
2022/10/23 10:17:55;;;;;;;12.93;6.83;;;;;;;-145.18;100.00;46672.13;5010866;28;20030;-72
2022/10/23 10:20:48;;;;;;;13.33;6.07;;;;;;;-145.18;100.00;46666.25;5010478;28;20072;-71
2022/10/23 10:23:34;;;;;;;10.83;6.10;;;;;;;-145.18;100.00;46664.31;5010312;28;20041;-72
2022/10/23 10:26:24;;;;;;;8.45;5.50;;;;;;;-145.18;100.00;46668.22;5008890;28;20051;-72
2022/10/23 10:28:58;;;;;;;10.30;5.90;;;;;;;-145.18;100.00;46670.16;5006052;28;20026;-72
2022/10/23 10:31:46;;;;;;;14.47;6.10;;;;;;;-145.18;100.00;46676.03;5004489;28;20036;-72
2022/10/23 10:34:17;;;;;;;15.67;5.77;;;;;;;-145.18;100.00;46676.03;5006246;28;20030;-72
2022/10/23 10:37:03;;;;;;;9.00;5.67;;;;;;;-145.18;100.00;46672.13;5008472;28;20113;-72
2022/10/23 10:39:51;;;;;;;11.90;5.60;;;;;;;-145.18;100.00;46674.06;4987899;28;20402;-72
2022/10/23 10:43:01;;;;;;;11.23;5.70;;;;;;;-145.18;100.00;46679.94;5006573;28;20463;-72
2022/10/23 10:45:29;;;;;;;14.17;6.43;;;;;;;-145.18;100.00;46681.88;4945296;28;20038;-72
2022/10/23 10:48:16;;;;;;;8.40;5.80;;;;;;;-145.18;100.00;46676.03;5008449;28;20022;-71
2022/10/23 10:50:49;;;;;;;11.40;5.00;;;;;;;-145.18;100.00;46676.03;5007096;28;20041;-72
2022/10/23 10:53:18;;;;;;;11.90;4.90;;;;;;;-145.18;100.00;46676.03;5005722;28;20025;-71
2022/10/23 10:55:49;;;;;;;12.23;5.43;;;;;;;-145.18;100.00;46674.06;5007328;28;20121;-72
2022/10/23 10:58:24;;;;;;;11.83;5.23;;;;;;;-145.18;100.00;46676.03;5008461;28;20534;-72
2022/10/23 11:00:55;;;;;;;7.57;5.10;;;;;;;-145.18;100.00;46679.94;5005253;28;20506;-72
2022/10/23 11:03:26;;;;;;;10.33;5.20;;;;;;;-145.18;100.00;46679.94;5003849;28;20084;-72
2022/10/23 11:05:54;;;;;;;11.40;5.13;;;;;;;-145.18;100.00;46679.94;5010071;28;20060;-72
2022/10/23 11:08:35;;;;;;;11.43;5.37;;;;;;;-145.18;100.00;46679.94;5008576;28;20061;-72
2022/10/23 11:11:11;;;;;;;7.00;4.67;;;;;;;-145.18;100.00;46681.88;5009217;28;20492;-72
2022/10/23 11:13:39;;;;;;;;;;;;;;;-145.18;100.00;46683.84;5008917;28;20482;-72
2022/10/23 11:16:25;;;;;;;7.47;4.20;;;;;;;-145.18;100.00;46683.84;5008361;28;19917;-72
2022/10/23 11:19:03;;;;;;;16.00;4.53;;;;;;;-145.18;100.00;46685.78;5007714;28;20105;-72